sensor_id;sensor_type;location;lat;lon;timestamp;P1;durP1;ratioP1;P2;durP2;ratioP2
11034;SDS011;5571;48.110;-1.706;2023-08-12T00:00:09;1.98;;;1.42;;
11034;SDS011;5571;48.110;-1.706;2023-08-12T00:02:39;3.22;;;1.40;;
11034;SDS011;5571;48.110;-1.706;2023-08-12T00:05:08;2.47;;;1.48;;
11034;SDS011;5571;48.110;-1.706;2023-08-12T00:07:36;2.47;;;1.25;;
11034;SDS011;5571;48.110;-1.706;2023-08-12T00:10:02;3.33;;;1.50;;
11034;SDS011;5571;48.110;-1.706;2023-08-12T00:12:32;3.70;;;1.27;;
11034;SDS011;5571;48.110;-1.706;2023-08-12T00:14:59;2.72;;;1.20;;
11034;SDS011;5571;48.110;-1.706;2023-08-12T00:17:24;1.20;;;1.20;;
11034;SDS011;5571;48.110;-1.706;2023-08-12T00:19:50;2.00;;;1.10;;
11034;SDS011;5571;48.110;-1.706;2023-08-12T00:22:15;1.95;;;1.10;;
11034;SDS011;5571;48.110;-1.706;2023-08-12T00:24:41;1.10;;;1.10;;
11034;SDS011;5571;48.110;-1.706;2023-08-12T00:27:07;2.30;;;1.20;;
11034;SDS011;5571;48.110;-1.706;2023-08-12T00:29:34;3.13;;;1.30;;
11034;SDS011;5571;48.110;-1.706;2023-08-12T00:32:00;0.93;;;0.93;;
11034;SDS011;5571;48.110;-1.706;2023-08-12T00:34:26;1.17;;;1.02;;
11034;SDS011;5571;48.110;-1.706;2023-08-12T00:36:51;2.28;;;1.05;;
11034;SDS011;5571;48.110;-1.706;2023-08-12T00:39:17;2.63;;;1.15;;
11034;SDS011;5571;48.110;-1.706;2023-08-12T00:41:43;2.05;;;1.10;;
11034;SDS011;5571;48.110;-1.706;2023-08-12T00:44:08;0.90;;;0.90;;
11034;SDS011;5571;48.110;-1.706;2023-08-12T00:46:34;2.50;;;1.00;;
11034;SDS011;5571;48.110;-1.706;2023-08-12T00:49:00;4.00;;;1.25;;
11034;SDS011;5571;48.110;-1.706;2023-08-12T00:51:26;1.05;;;0.95;;
11034;SDS011;5571;48.110;-1.706;2023-08-12T00:53:52;2.92;;;1.10;;
11034;SDS011;5571;48.110;-1.706;2023-08-12T00:56:19;1.88;;;1.10;;
11034;SDS011;5571;48.110;-1.706;2023-08-12T00:58:46;6.00;;;1.05;;
11034;SDS011;5571;48.110;-1.706;2023-08-12T01:01:12;2.53;;;1.25;;
11034;SDS011;5571;48.110;-1.706;2023-08-12T01:03:38;1.55;;;0.88;;
11034;SDS011;5571;48.110;-1.706;2023-08-12T01:06:04;1.63;;;0.98;;
11034;SDS011;5571;48.110;-1.706;2023-08-12T01:08:32;1.90;;;1.10;;
11034;SDS011;5571;48.110;-1.706;2023-08-12T01:14:02;2.45;;;2.00;;
11034;SDS011;5571;48.110;-1.706;2023-08-12T01:16:39;2.83;;;2.03;;
11034;SDS011;5571;48.110;-1.706;2023-08-12T01:19:10;1.33;;;1.20;;
11034;SDS011;5571;48.110;-1.706;2023-08-12T01:21:40;2.70;;;1.17;;
11034;SDS011;5571;48.110;-1.706;2023-08-12T01:24:08;3.08;;;1.25;;
11034;SDS011;5571;48.110;-1.706;2023-08-12T01:26:34;3.47;;;1.50;;
11034;SDS011;5571;48.110;-1.706;2023-08-12T01:29:00;2.53;;;1.20;;
11034;SDS011;5571;48.110;-1.706;2023-08-12T01:31:48;2.13;;;0.82;;
11034;SDS011;5571;48.110;-1.706;2023-08-12T01:34:21;1.50;;;1.08;;
11034;SDS011;5571;48.110;-1.706;2023-08-12T01:37:01;3.40;;;1.00;;
11034;SDS011;5571;48.110;-1.706;2023-08-12T01:39:31;3.10;;;1.45;;
11034;SDS011;5571;48.110;-1.706;2023-08-12T01:41:58;7.95;;;4.18;;
11034;SDS011;5571;48.110;-1.706;2023-08-12T01:44:25;3.55;;;1.65;;
11034;SDS011;5571;48.110;-1.706;2023-08-12T01:46:51;5.95;;;1.45;;
11034;SDS011;5571;48.110;-1.706;2023-08-12T01:49:17;1.73;;;1.30;;
11034;SDS011;5571;48.110;-1.706;2023-08-12T01:51:42;3.67;;;1.40;;
11034;SDS011;5571;48.110;-1.706;2023-08-12T01:54:08;2.15;;;1.33;;
11034;SDS011;5571;48.110;-1.706;2023-08-12T01:56:34;4.70;;;2.30;;
11034;SDS011;5571;48.110;-1.706;2023-08-12T01:58:59;10.07;;;2.65;;
11034;SDS011;5571;48.110;-1.706;2023-08-12T02:01:25;12.70;;;3.40;;
11034;SDS011;5571;48.110;-1.706;2023-08-12T02:03:50;19.30;;;5.22;;
11034;SDS011;5571;48.110;-1.706;2023-08-12T02:06:16;22.00;;;5.80;;
11034;SDS011;5571;48.110;-1.706;2023-08-12T02:08:42;15.82;;;3.83;;
11034;SDS011;5571;48.110;-1.706;2023-08-12T02:11:07;8.25;;;2.80;;
11034;SDS011;5571;48.110;-1.706;2023-08-12T02:13:33;5.43;;;1.80;;
11034;SDS011;5571;48.110;-1.706;2023-08-12T02:15:58;4.95;;;1.45;;
11034;SDS011;5571;48.110;-1.706;2023-08-12T02:18:24;7.05;;;1.80;;
11034;SDS011;5571;48.110;-1.706;2023-08-12T02:20:49;4.13;;;1.35;;
11034;SDS011;5571;48.110;-1.706;2023-08-12T02:23:15;6.28;;;1.60;;
11034;SDS011;5571;48.110;-1.706;2023-08-12T02:25:41;7.55;;;1.67;;
11034;SDS011;5571;48.110;-1.706;2023-08-12T02:28:06;3.78;;;1.52;;
11034;SDS011;5571;48.110;-1.706;2023-08-12T02:30:32;5.55;;;1.88;;
11034;SDS011;5571;48.110;-1.706;2023-08-12T02:32:58;11.23;;;1.80;;
11034;SDS011;5571;48.110;-1.706;2023-08-12T02:35:23;5.30;;;1.67;;
11034;SDS011;5571;48.110;-1.706;2023-08-12T02:37:49;2.65;;;1.40;;
11034;SDS011;5571;48.110;-1.706;2023-08-12T02:40:15;7.20;;;2.03;;
11034;SDS011;5571;48.110;-1.706;2023-08-12T02:42:40;4.50;;;1.88;;
11034;SDS011;5571;48.110;-1.706;2023-08-12T02:45:06;4.72;;;2.10;;
11034;SDS011;5571;48.110;-1.706;2023-08-12T02:47:32;2.42;;;1.90;;
11034;SDS011;5571;48.110;-1.706;2023-08-12T02:49:57;5.00;;;1.83;;
11034;SDS011;5571;48.110;-1.706;2023-08-12T02:52:23;6.32;;;2.00;;
11034;SDS011;5571;48.110;-1.706;2023-08-12T02:54:49;5.47;;;2.05;;
11034;SDS011;5571;48.110;-1.706;2023-08-12T02:57:14;6.53;;;2.20;;
11034;SDS011;5571;48.110;-1.706;2023-08-12T02:59:40;5.18;;;2.10;;
11034;SDS011;5571;48.110;-1.706;2023-08-12T03:02:05;4.38;;;2.03;;
11034;SDS011;5571;48.110;-1.706;2023-08-12T03:04:31;8.35;;;2.30;;
11034;SDS011;5571;48.110;-1.706;2023-08-12T03:06:57;4.63;;;1.88;;
11034;SDS011;5571;48.110;-1.706;2023-08-12T03:09:22;5.20;;;2.10;;
11034;SDS011;5571;48.110;-1.706;2023-08-12T03:11:48;7.93;;;2.30;;
11034;SDS011;5571;48.110;-1.706;2023-08-12T03:14:13;6.93;;;2.15;;
11034;SDS011;5571;48.110;-1.706;2023-08-12T03:16:39;3.50;;;2.08;;
11034;SDS011;5571;48.110;-1.706;2023-08-12T03:19:05;5.63;;;2.20;;
11034;SDS011;5571;48.110;-1.706;2023-08-12T03:21:30;5.97;;;2.22;;
11034;SDS011;5571;48.110;-1.706;2023-08-12T03:23:56;9.50;;;2.47;;
11034;SDS011;5571;48.110;-1.706;2023-08-12T03:26:22;7.40;;;2.38;;
11034;SDS011;5571;48.110;-1.706;2023-08-12T03:28:47;6.38;;;2.42;;
11034;SDS011;5571;48.110;-1.706;2023-08-12T03:31:13;4.47;;;2.15;;
11034;SDS011;5571;48.110;-1.706;2023-08-12T03:33:38;7.65;;;2.72;;
11034;SDS011;5571;48.110;-1.706;2023-08-12T03:36:04;6.57;;;2.40;;
11034;SDS011;5571;48.110;-1.706;2023-08-12T03:38:29;12.20;;;2.55;;
11034;SDS011;5571;48.110;-1.706;2023-08-12T03:40:55;6.63;;;2.70;;
11034;SDS011;5571;48.110;-1.706;2023-08-12T03:43:21;12.18;;;2.80;;
11034;SDS011;5571;48.110;-1.706;2023-08-12T03:45:46;8.48;;;2.50;;
11034;SDS011;5571;48.110;-1.706;2023-08-12T03:48:12;10.20;;;2.70;;
11034;SDS011;5571;48.110;-1.706;2023-08-12T03:50:38;9.52;;;2.60;;
11034;SDS011;5571;48.110;-1.706;2023-08-12T03:53:04;6.63;;;2.78;;
11034;SDS011;5571;48.110;-1.706;2023-08-12T03:55:31;8.52;;;2.70;;
11034;SDS011;5571;48.110;-1.706;2023-08-12T03:57:57;7.00;;;2.60;;
11034;SDS011;5571;48.110;-1.706;2023-08-12T04:00:26;6.80;;;2.67;;
11034;SDS011;5571;48.110;-1.706;2023-08-12T04:02:52;5.97;;;2.50;;
11034;SDS011;5571;48.110;-1.706;2023-08-12T04:05:18;7.10;;;2.63;;
11034;SDS011;5571;48.110;-1.706;2023-08-12T04:07:43;8.05;;;2.55;;
11034;SDS011;5571;48.110;-1.706;2023-08-12T04:10:09;6.45;;;2.60;;
11034;SDS011;5571;48.110;-1.706;2023-08-12T04:12:35;4.90;;;2.50;;
11034;SDS011;5571;48.110;-1.706;2023-08-12T04:15:01;6.50;;;2.97;;
11034;SDS011;5571;48.110;-1.706;2023-08-12T04:17:29;6.63;;;3.17;;
11034;SDS011;5571;48.110;-1.706;2023-08-12T04:19:55;6.10;;;3.00;;
11034;SDS011;5571;48.110;-1.706;2023-08-12T04:22:21;6.97;;;3.10;;
11034;SDS011;5571;48.110;-1.706;2023-08-12T04:24:46;4.15;;;2.83;;
11034;SDS011;5571;48.110;-1.706;2023-08-12T04:27:12;8.23;;;3.10;;
11034;SDS011;5571;48.110;-1.706;2023-08-12T04:29:37;12.07;;;3.33;;
11034;SDS011;5571;48.110;-1.706;2023-08-12T04:32:03;7.97;;;2.97;;
11034;SDS011;5571;48.110;-1.706;2023-08-12T04:34:29;9.57;;;3.38;;
11034;SDS011;5571;48.110;-1.706;2023-08-12T04:36:54;9.43;;;3.35;;
11034;SDS011;5571;48.110;-1.706;2023-08-12T04:39:20;9.05;;;3.63;;
11034;SDS011;5571;48.110;-1.706;2023-08-12T04:41:47;14.35;;;3.90;;
11034;SDS011;5571;48.110;-1.706;2023-08-12T04:44:12;8.13;;;3.78;;
11034;SDS011;5571;48.110;-1.706;2023-08-12T04:46:38;13.82;;;3.50;;
11034;SDS011;5571;48.110;-1.706;2023-08-12T04:49:04;9.38;;;3.60;;
11034;SDS011;5571;48.110;-1.706;2023-08-12T04:51:31;7.93;;;3.75;;
11034;SDS011;5571;48.110;-1.706;2023-08-12T04:53:57;9.77;;;3.67;;
11034;SDS011;5571;48.110;-1.706;2023-08-12T04:56:23;7.63;;;3.20;;
11034;SDS011;5571;48.110;-1.706;2023-08-12T04:58:49;8.40;;;3.58;;
11034;SDS011;5571;48.110;-1.706;2023-08-12T05:01:15;6.72;;;3.38;;
11034;SDS011;5571;48.110;-1.706;2023-08-12T05:03:40;17.08;;;4.00;;
11034;SDS011;5571;48.110;-1.706;2023-08-12T05:06:06;10.75;;;3.58;;
11034;SDS011;5571;48.110;-1.706;2023-08-12T05:08:32;7.93;;;3.85;;
11034;SDS011;5571;48.110;-1.706;2023-08-12T05:10:57;11.70;;;4.22;;
11034;SDS011;5571;48.110;-1.706;2023-08-12T05:13:23;10.15;;;3.63;;
11034;SDS011;5571;48.110;-1.706;2023-08-12T05:15:49;11.38;;;3.65;;
11034;SDS011;5571;48.110;-1.706;2023-08-12T05:18:14;10.57;;;4.00;;
11034;SDS011;5571;48.110;-1.706;2023-08-12T05:20:41;10.05;;;3.88;;
11034;SDS011;5571;48.110;-1.706;2023-08-12T05:23:07;8.43;;;3.50;;
11034;SDS011;5571;48.110;-1.706;2023-08-12T05:25:33;11.50;;;3.85;;
11034;SDS011;5571;48.110;-1.706;2023-08-12T05:27:58;6.85;;;3.65;;
11034;SDS011;5571;48.110;-1.706;2023-08-12T05:30:24;7.93;;;3.58;;
11034;SDS011;5571;48.110;-1.706;2023-08-12T05:32:50;7.53;;;3.80;;
11034;SDS011;5571;48.110;-1.706;2023-08-12T05:35:16;9.63;;;3.88;;
11034;SDS011;5571;48.110;-1.706;2023-08-12T05:37:41;12.52;;;4.18;;
11034;SDS011;5571;48.110;-1.706;2023-08-12T05:40:10;12.60;;;3.85;;
11034;SDS011;5571;48.110;-1.706;2023-08-12T05:42:36;13.63;;;4.07;;
11034;SDS011;5571;48.110;-1.706;2023-08-12T05:45:02;11.73;;;4.13;;
11034;SDS011;5571;48.110;-1.706;2023-08-12T05:47:29;10.50;;;4.13;;
11034;SDS011;5571;48.110;-1.706;2023-08-12T05:49:54;12.38;;;3.95;;
11034;SDS011;5571;48.110;-1.706;2023-08-12T05:52:20;9.35;;;4.13;;
11034;SDS011;5571;48.110;-1.706;2023-08-12T05:54:46;8.35;;;3.90;;
11034;SDS011;5571;48.110;-1.706;2023-08-12T05:57:11;10.82;;;4.28;;
11034;SDS011;5571;48.110;-1.706;2023-08-12T05:59:37;7.13;;;3.95;;
11034;SDS011;5571;48.110;-1.706;2023-08-12T06:02:02;12.45;;;4.25;;
11034;SDS011;5571;48.110;-1.706;2023-08-12T06:04:28;16.35;;;4.68;;
11034;SDS011;5571;48.110;-1.706;2023-08-12T06:06:54;14.30;;;4.20;;
11034;SDS011;5571;48.110;-1.706;2023-08-12T06:09:20;9.75;;;4.18;;
11034;SDS011;5571;48.110;-1.706;2023-08-12T06:11:46;8.00;;;3.88;;
11034;SDS011;5571;48.110;-1.706;2023-08-12T06:14:12;14.52;;;4.90;;
11034;SDS011;5571;48.110;-1.706;2023-08-12T06:16:38;14.65;;;4.45;;
11034;SDS011;5571;48.110;-1.706;2023-08-12T06:19:03;15.50;;;4.15;;
11034;SDS011;5571;48.110;-1.706;2023-08-12T06:21:29;10.90;;;4.43;;
11034;SDS011;5571;48.110;-1.706;2023-08-12T06:23:55;11.45;;;4.03;;
11034;SDS011;5571;48.110;-1.706;2023-08-12T06:26:21;15.07;;;4.40;;
11034;SDS011;5571;48.110;-1.706;2023-08-12T06:28:46;13.15;;;4.47;;
11034;SDS011;5571;48.110;-1.706;2023-08-12T06:31:12;14.30;;;4.20;;
11034;SDS011;5571;48.110;-1.706;2023-08-12T06:33:38;12.38;;;4.65;;
11034;SDS011;5571;48.110;-1.706;2023-08-12T06:36:03;14.50;;;4.30;;
11034;SDS011;5571;48.110;-1.706;2023-08-12T06:38:29;12.40;;;4.65;;
11034;SDS011;5571;48.110;-1.706;2023-08-12T06:40:55;15.75;;;4.25;;
11034;SDS011;5571;48.110;-1.706;2023-08-12T06:43:20;12.45;;;4.70;;
11034;SDS011;5571;48.110;-1.706;2023-08-12T06:45:46;20.38;;;4.78;;
11034;SDS011;5571;48.110;-1.706;2023-08-12T06:48:11;20.40;;;4.80;;
11034;SDS011;5571;48.110;-1.706;2023-08-12T06:50:37;18.77;;;4.40;;
11034;SDS011;5571;48.110;-1.706;2023-08-12T06:53:03;18.17;;;4.85;;
11034;SDS011;5571;48.110;-1.706;2023-08-12T06:55:28;10.18;;;4.47;;
11034;SDS011;5571;48.110;-1.706;2023-08-12T06:57:54;13.55;;;4.50;;
11034;SDS011;5571;48.110;-1.706;2023-08-12T07:00:20;13.40;;;4.47;;
11034;SDS011;5571;48.110;-1.706;2023-08-12T07:02:45;16.02;;;4.85;;
11034;SDS011;5571;48.110;-1.706;2023-08-12T07:05:11;19.98;;;5.05;;
11034;SDS011;5571;48.110;-1.706;2023-08-12T07:07:36;14.20;;;4.47;;
11034;SDS011;5571;48.110;-1.706;2023-08-12T07:10:02;14.90;;;4.65;;
11034;SDS011;5571;48.110;-1.706;2023-08-12T07:12:29;15.38;;;4.78;;
11034;SDS011;5571;48.110;-1.706;2023-08-12T07:14:55;18.00;;;5.10;;
11034;SDS011;5571;48.110;-1.706;2023-08-12T07:17:20;20.13;;;5.90;;
11034;SDS011;5571;48.110;-1.706;2023-08-12T07:19:47;17.67;;;4.18;;
11034;SDS011;5571;48.110;-1.706;2023-08-12T07:22:12;19.58;;;5.05;;
11034;SDS011;5571;48.110;-1.706;2023-08-12T07:24:38;16.20;;;4.78;;
11034;SDS011;5571;48.110;-1.706;2023-08-12T07:27:03;15.93;;;4.43;;
11034;SDS011;5571;48.110;-1.706;2023-08-12T07:29:29;13.10;;;4.47;;
11034;SDS011;5571;48.110;-1.706;2023-08-12T07:31:55;15.27;;;4.40;;
11034;SDS011;5571;48.110;-1.706;2023-08-12T07:34:21;10.25;;;3.90;;
11034;SDS011;5571;48.110;-1.706;2023-08-12T07:36:46;14.48;;;4.22;;
11034;SDS011;5571;48.110;-1.706;2023-08-12T07:39:12;14.90;;;4.18;;
11034;SDS011;5571;48.110;-1.706;2023-08-12T07:41:38;12.88;;;4.13;;
11034;SDS011;5571;48.110;-1.706;2023-08-12T07:44:04;19.00;;;4.13;;
11034;SDS011;5571;48.110;-1.706;2023-08-12T07:46:30;11.27;;;3.83;;
11034;SDS011;5571;48.110;-1.706;2023-08-12T07:48:56;16.00;;;4.40;;
11034;SDS011;5571;48.110;-1.706;2023-08-12T07:51:22;17.98;;;4.18;;
11034;SDS011;5571;48.110;-1.706;2023-08-12T07:53:47;14.48;;;4.13;;
11034;SDS011;5571;48.110;-1.706;2023-08-12T07:56:13;14.93;;;4.07;;
11034;SDS011;5571;48.110;-1.706;2023-08-12T07:58:39;18.92;;;4.10;;
11034;SDS011;5571;48.110;-1.706;2023-08-12T08:01:04;18.42;;;4.28;;
11034;SDS011;5571;48.110;-1.706;2023-08-12T08:03:30;21.95;;;4.40;;
11034;SDS011;5571;48.110;-1.706;2023-08-12T08:05:56;13.68;;;3.80;;
11034;SDS011;5571;48.110;-1.706;2023-08-12T08:08:21;14.32;;;4.03;;
11034;SDS011;5571;48.110;-1.706;2023-08-12T08:10:47;16.88;;;4.68;;
11034;SDS011;5571;48.110;-1.706;2023-08-12T08:13:13;17.33;;;4.25;;
11034;SDS011;5571;48.110;-1.706;2023-08-12T08:15:38;13.80;;;3.70;;
11034;SDS011;5571;48.110;-1.706;2023-08-12T08:18:04;10.90;;;3.58;;
11034;SDS011;5571;48.110;-1.706;2023-08-12T08:20:30;16.45;;;4.00;;
11034;SDS011;5571;48.110;-1.706;2023-08-12T08:22:56;17.17;;;4.55;;
11034;SDS011;5571;48.110;-1.706;2023-08-12T08:25:22;15.88;;;4.25;;
11034;SDS011;5571;48.110;-1.706;2023-08-12T08:27:47;17.85;;;4.60;;
11034;SDS011;5571;48.110;-1.706;2023-08-12T08:30:13;15.93;;;3.80;;
11034;SDS011;5571;48.110;-1.706;2023-08-12T08:32:39;18.33;;;4.10;;
11034;SDS011;5571;48.110;-1.706;2023-08-12T08:35:05;13.82;;;3.47;;
11034;SDS011;5571;48.110;-1.706;2023-08-12T08:37:31;21.58;;;5.63;;
11034;SDS011;5571;48.110;-1.706;2023-08-12T08:39:56;12.07;;;4.38;;
11034;SDS011;5571;48.110;-1.706;2023-08-12T08:42:22;18.52;;;3.83;;
11034;SDS011;5571;48.110;-1.706;2023-08-12T08:44:51;17.80;;;3.78;;
11034;SDS011;5571;48.110;-1.706;2023-08-12T08:47:24;16.40;;;4.35;;
11034;SDS011;5571;48.110;-1.706;2023-08-12T08:49:51;13.30;;;4.07;;
11034;SDS011;5571;48.110;-1.706;2023-08-12T08:52:21;12.73;;;3.50;;
11034;SDS011;5571;48.110;-1.706;2023-08-12T08:54:48;13.63;;;3.55;;
11034;SDS011;5571;48.110;-1.706;2023-08-12T08:57:14;16.33;;;4.07;;
11034;SDS011;5571;48.110;-1.706;2023-08-12T08:59:40;14.48;;;3.95;;
11034;SDS011;5571;48.110;-1.706;2023-08-12T09:02:06;16.58;;;4.05;;
11034;SDS011;5571;48.110;-1.706;2023-08-12T09:04:40;14.02;;;3.63;;
11034;SDS011;5571;48.110;-1.706;2023-08-12T09:07:07;15.75;;;3.80;;
11034;SDS011;5571;48.110;-1.706;2023-08-12T09:09:33;13.35;;;3.50;;
11034;SDS011;5571;48.110;-1.706;2023-08-12T09:12:00;15.52;;;4.00;;
11034;SDS011;5571;48.110;-1.706;2023-08-12T09:14:28;16.17;;;3.80;;
11034;SDS011;5571;48.110;-1.706;2023-08-12T09:16:54;11.80;;;3.60;;
11034;SDS011;5571;48.110;-1.706;2023-08-12T09:19:20;13.52;;;3.47;;
11034;SDS011;5571;48.110;-1.706;2023-08-12T09:21:51;12.75;;;3.38;;
11034;SDS011;5571;48.110;-1.706;2023-08-12T09:24:23;14.20;;;3.90;;
11034;SDS011;5571;48.110;-1.706;2023-08-12T09:26:53;13.27;;;4.00;;
11034;SDS011;5571;48.110;-1.706;2023-08-12T09:29:23;16.45;;;3.92;;
11034;SDS011;5571;48.110;-1.706;2023-08-12T09:32:05;16.20;;;4.10;;
11034;SDS011;5571;48.110;-1.706;2023-08-12T09:34:35;10.32;;;3.67;;
11034;SDS011;5571;48.110;-1.706;2023-08-12T09:37:01;13.93;;;3.67;;
11034;SDS011;5571;48.110;-1.706;2023-08-12T09:39:28;13.73;;;3.42;;
11034;SDS011;5571;48.110;-1.706;2023-08-12T09:41:58;13.10;;;3.70;;
11034;SDS011;5571;48.110;-1.706;2023-08-12T09:44:24;13.43;;;3.17;;
11034;SDS011;5571;48.110;-1.706;2023-08-12T09:46:56;13.13;;;3.55;;
11034;SDS011;5571;48.110;-1.706;2023-08-12T09:49:22;11.10;;;3.80;;
11034;SDS011;5571;48.110;-1.706;2023-08-12T09:51:48;10.95;;;3.42;;
11034;SDS011;5571;48.110;-1.706;2023-08-12T09:54:15;9.57;;;3.25;;
11034;SDS011;5571;48.110;-1.706;2023-08-12T09:56:42;11.20;;;3.25;;
11034;SDS011;5571;48.110;-1.706;2023-08-12T09:59:11;14.73;;;3.55;;
11034;SDS011;5571;48.110;-1.706;2023-08-12T10:01:39;10.85;;;3.10;;
11034;SDS011;5571;48.110;-1.706;2023-08-12T10:04:07;11.13;;;3.08;;
11034;SDS011;5571;48.110;-1.706;2023-08-12T10:06:37;11.43;;;3.00;;
11034;SDS011;5571;48.110;-1.706;2023-08-12T10:09:03;11.35;;;3.95;;
11034;SDS011;5571;48.110;-1.706;2023-08-12T10:11:30;8.82;;;3.42;;
11034;SDS011;5571;48.110;-1.706;2023-08-12T10:13:56;12.15;;;5.07;;
11034;SDS011;5571;48.110;-1.706;2023-08-12T10:16:22;12.88;;;3.55;;
11034;SDS011;5571;48.110;-1.706;2023-08-12T10:18:48;13.63;;;3.63;;
11034;SDS011;5571;48.110;-1.706;2023-08-12T10:21:14;9.68;;;3.42;;
11034;SDS011;5571;48.110;-1.706;2023-08-12T10:23:42;16.38;;;3.97;;
11034;SDS011;5571;48.110;-1.706;2023-08-12T10:26:08;15.48;;;3.60;;
11034;SDS011;5571;48.110;-1.706;2023-08-12T10:28:34;12.38;;;3.33;;
11034;SDS011;5571;48.110;-1.706;2023-08-12T10:31:03;11.38;;;3.33;;
11034;SDS011;5571;48.110;-1.706;2023-08-12T10:33:38;11.20;;;3.60;;
11034;SDS011;5571;48.110;-1.706;2023-08-12T10:36:04;11.68;;;3.83;;
11034;SDS011;5571;48.110;-1.706;2023-08-12T10:38:31;10.80;;;2.70;;
11034;SDS011;5571;48.110;-1.706;2023-08-12T10:41:16;19.50;;;3.78;;
11034;SDS011;5571;48.110;-1.706;2023-08-12T10:46:31;14.82;;;3.35;;
11034;SDS011;5571;48.110;-1.706;2023-08-12T10:49:05;8.90;;;2.97;;
11034;SDS011;5571;48.110;-1.706;2023-08-12T10:54:23;14.30;;;3.80;;
11034;SDS011;5571;48.110;-1.706;2023-08-12T11:02:28;14.85;;;4.30;;
11034;SDS011;5571;48.110;-1.706;2023-08-12T11:08:07;15.65;;;2.92;;
11034;SDS011;5571;48.110;-1.706;2023-08-12T11:15:16;11.73;;;3.33;;
11034;SDS011;5571;48.110;-1.706;2023-08-12T11:17:42;8.88;;;3.15;;
11034;SDS011;5571;48.110;-1.706;2023-08-12T11:20:11;9.63;;;2.92;;
11034;SDS011;5571;48.110;-1.706;2023-08-12T11:22:41;12.10;;;3.50;;
11034;SDS011;5571;48.110;-1.706;2023-08-12T11:25:09;16.63;;;3.38;;
11034;SDS011;5571;48.110;-1.706;2023-08-12T11:27:40;13.75;;;3.17;;
11034;SDS011;5571;48.110;-1.706;2023-08-12T11:30:08;14.60;;;3.78;;
11034;SDS011;5571;48.110;-1.706;2023-08-12T11:32:35;16.42;;;3.45;;
11034;SDS011;5571;48.110;-1.706;2023-08-12T11:35:03;11.50;;;3.53;;
11034;SDS011;5571;48.110;-1.706;2023-08-12T11:37:31;10.25;;;3.40;;
11034;SDS011;5571;48.110;-1.706;2023-08-12T11:39:57;12.25;;;3.60;;
11034;SDS011;5571;48.110;-1.706;2023-08-12T11:42:22;13.25;;;3.50;;
11034;SDS011;5571;48.110;-1.706;2023-08-12T11:44:48;15.98;;;3.90;;
11034;SDS011;5571;48.110;-1.706;2023-08-12T11:47:13;13.18;;;3.78;;
11034;SDS011;5571;48.110;-1.706;2023-08-12T11:49:39;13.80;;;3.53;;
11034;SDS011;5571;48.110;-1.706;2023-08-12T11:52:05;12.70;;;3.20;;
11034;SDS011;5571;48.110;-1.706;2023-08-12T11:54:34;16.08;;;3.88;;
11034;SDS011;5571;48.110;-1.706;2023-08-12T11:56:59;14.45;;;3.65;;
11034;SDS011;5571;48.110;-1.706;2023-08-12T11:59:25;16.30;;;3.88;;
11034;SDS011;5571;48.110;-1.706;2023-08-12T12:01:51;10.50;;;3.55;;
11034;SDS011;5571;48.110;-1.706;2023-08-12T12:04:17;12.65;;;3.50;;
11034;SDS011;5571;48.110;-1.706;2023-08-12T12:06:45;12.50;;;3.63;;
11034;SDS011;5571;48.110;-1.706;2023-08-12T12:09:12;14.60;;;3.15;;
11034;SDS011;5571;48.110;-1.706;2023-08-12T12:11:39;10.63;;;3.13;;
11034;SDS011;5571;48.110;-1.706;2023-08-12T12:14:08;11.70;;;3.33;;
11034;SDS011;5571;48.110;-1.706;2023-08-12T12:16:38;12.60;;;3.03;;
11034;SDS011;5571;48.110;-1.706;2023-08-12T12:21:40;12.50;;;3.40;;
11034;SDS011;5571;48.110;-1.706;2023-08-12T12:24:07;9.68;;;2.95;;
11034;SDS011;5571;48.110;-1.706;2023-08-12T12:26:33;12.48;;;3.03;;
11034;SDS011;5571;48.110;-1.706;2023-08-12T12:29:00;13.60;;;3.45;;
11034;SDS011;5571;48.110;-1.706;2023-08-12T12:31:26;12.05;;;3.17;;
11034;SDS011;5571;48.110;-1.706;2023-08-12T12:33:52;14.18;;;3.67;;
11034;SDS011;5571;48.110;-1.706;2023-08-12T12:36:17;12.32;;;3.25;;
11034;SDS011;5571;48.110;-1.706;2023-08-12T12:38:43;14.65;;;3.50;;
11034;SDS011;5571;48.110;-1.706;2023-08-12T12:41:08;13.88;;;3.42;;
11034;SDS011;5571;48.110;-1.706;2023-08-12T12:43:34;11.13;;;2.80;;
11034;SDS011;5571;48.110;-1.706;2023-08-12T12:46:00;10.75;;;3.17;;
11034;SDS011;5571;48.110;-1.706;2023-08-12T12:48:25;12.32;;;3.20;;
11034;SDS011;5571;48.110;-1.706;2023-08-12T12:50:51;11.35;;;3.33;;
11034;SDS011;5571;48.110;-1.706;2023-08-12T12:53:16;9.43;;;3.13;;
11034;SDS011;5571;48.110;-1.706;2023-08-12T12:55:42;11.63;;;3.67;;
11034;SDS011;5571;48.110;-1.706;2023-08-12T12:58:09;14.73;;;3.28;;
11034;SDS011;5571;48.110;-1.706;2023-08-12T13:00:35;8.50;;;2.95;;
11034;SDS011;5571;48.110;-1.706;2023-08-12T13:03:00;12.65;;;3.38;;
11034;SDS011;5571;48.110;-1.706;2023-08-12T13:05:26;7.22;;;2.78;;
11034;SDS011;5571;48.110;-1.706;2023-08-12T13:07:51;13.27;;;3.55;;
11034;SDS011;5571;48.110;-1.706;2023-08-12T13:10:17;11.10;;;3.17;;
11034;SDS011;5571;48.110;-1.706;2023-08-12T13:12:42;9.75;;;2.95;;
11034;SDS011;5571;48.110;-1.706;2023-08-12T13:15:08;6.22;;;2.63;;
11034;SDS011;5571;48.110;-1.706;2023-08-12T13:17:34;7.00;;;2.63;;
11034;SDS011;5571;48.110;-1.706;2023-08-12T13:20:00;8.98;;;3.42;;
11034;SDS011;5571;48.110;-1.706;2023-08-12T13:22:25;11.10;;;3.15;;
11034;SDS011;5571;48.110;-1.706;2023-08-12T13:24:51;12.98;;;3.47;;
11034;SDS011;5571;48.110;-1.706;2023-08-12T13:27:16;11.50;;;3.25;;
11034;SDS011;5571;48.110;-1.706;2023-08-12T13:29:42;13.70;;;3.58;;
11034;SDS011;5571;48.110;-1.706;2023-08-12T13:32:08;9.95;;;2.97;;
11034;SDS011;5571;48.110;-1.706;2023-08-12T13:34:34;7.63;;;2.95;;
11034;SDS011;5571;48.110;-1.706;2023-08-12T13:36:59;10.43;;;3.75;;
11034;SDS011;5571;48.110;-1.706;2023-08-12T13:39:25;12.27;;;3.17;;
11034;SDS011;5571;48.110;-1.706;2023-08-12T13:41:51;10.25;;;3.28;;
11034;SDS011;5571;48.110;-1.706;2023-08-12T13:44:16;12.70;;;3.38;;
11034;SDS011;5571;48.110;-1.706;2023-08-12T13:46:42;10.40;;;3.13;;
11034;SDS011;5571;48.110;-1.706;2023-08-12T13:49:08;11.07;;;3.20;;
11034;SDS011;5571;48.110;-1.706;2023-08-12T13:51:33;9.40;;;3.00;;
11034;SDS011;5571;48.110;-1.706;2023-08-12T13:53:59;14.30;;;3.10;;
11034;SDS011;5571;48.110;-1.706;2023-08-12T13:56:25;9.63;;;3.03;;
11034;SDS011;5571;48.110;-1.706;2023-08-12T13:58:50;7.22;;;2.65;;
11034;SDS011;5571;48.110;-1.706;2023-08-12T14:01:16;8.90;;;2.67;;
11034;SDS011;5571;48.110;-1.706;2023-08-12T14:03:41;11.15;;;2.72;;
11034;SDS011;5571;48.110;-1.706;2023-08-12T14:06:07;15.38;;;2.83;;
11034;SDS011;5571;48.110;-1.706;2023-08-12T14:08:32;8.88;;;2.95;;
11034;SDS011;5571;48.110;-1.706;2023-08-12T14:10:58;7.47;;;2.85;;
11034;SDS011;5571;48.110;-1.706;2023-08-12T14:13:23;8.60;;;2.80;;
11034;SDS011;5571;48.110;-1.706;2023-08-12T14:15:49;8.48;;;2.78;;
11034;SDS011;5571;48.110;-1.706;2023-08-12T14:18:15;11.68;;;3.08;;
11034;SDS011;5571;48.110;-1.706;2023-08-12T14:20:40;10.55;;;2.60;;
11034;SDS011;5571;48.110;-1.706;2023-08-12T14:23:06;11.75;;;2.88;;
11034;SDS011;5571;48.110;-1.706;2023-08-12T14:25:33;10.45;;;3.00;;
11034;SDS011;5571;48.110;-1.706;2023-08-12T14:27:59;9.48;;;3.10;;
11034;SDS011;5571;48.110;-1.706;2023-08-12T14:30:24;8.57;;;3.30;;
11034;SDS011;5571;48.110;-1.706;2023-08-12T14:32:51;9.63;;;2.88;;
11034;SDS011;5571;48.110;-1.706;2023-08-12T14:35:16;9.35;;;3.47;;
11034;SDS011;5571;48.110;-1.706;2023-08-12T14:37:42;8.65;;;2.97;;
11034;SDS011;5571;48.110;-1.706;2023-08-12T14:40:08;8.98;;;2.95;;
11034;SDS011;5571;48.110;-1.706;2023-08-12T14:42:35;8.23;;;2.63;;
11034;SDS011;5571;48.110;-1.706;2023-08-12T14:45:01;6.35;;;2.42;;
11034;SDS011;5571;48.110;-1.706;2023-08-12T14:47:27;8.70;;;2.70;;
11034;SDS011;5571;48.110;-1.706;2023-08-12T14:49:52;9.55;;;2.80;;
11034;SDS011;5571;48.110;-1.706;2023-08-12T14:52:18;8.20;;;2.55;;
11034;SDS011;5571;48.110;-1.706;2023-08-12T14:54:46;12.23;;;2.90;;
11034;SDS011;5571;48.110;-1.706;2023-08-12T14:57:11;8.75;;;2.67;;
11034;SDS011;5571;48.110;-1.706;2023-08-12T14:59:37;8.13;;;2.35;;